createdAt,value
2022-07-25T00:01:46.975Z,47.49
2022-07-25T00:04:14.867Z,47.57
2022-07-25T00:06:43.021Z,48.13
2022-07-25T00:09:10.095Z,48.34
2022-07-25T00:11:37.185Z,49.43
2022-07-25T00:14:05.207Z,49.43
2022-07-25T00:16:32.953Z,49.91
2022-07-25T00:18:59.726Z,49.46
2022-07-25T00:21:26.847Z,50.23
2022-07-25T00:23:53.784Z,51.87
2022-07-25T00:26:20.576Z,52.32
2022-07-25T00:28:47.457Z,52.50
2022-07-25T00:31:14.239Z,52.83
2022-07-25T00:33:41.321Z,53.10
2022-07-25T00:36:09.032Z,53.30
2022-07-25T00:38:35.784Z,52.10
2022-07-25T00:41:04.211Z,51.53
2022-07-25T00:43:31.883Z,52.38
2022-07-25T00:45:59.481Z,52.31
2022-07-25T00:48:29.049Z,50.91
2022-07-25T00:50:56.916Z,51.03
2022-07-25T00:53:25.106Z,49.90
2022-07-25T00:55:52.667Z,51.31
2022-07-25T00:58:19.447Z,51.04
2022-07-25T01:00:46.765Z,50.63
2022-07-25T01:03:13.903Z,50.44
2022-07-25T01:05:41.018Z,50.75
2022-07-25T01:08:08.370Z,50.93
2022-07-25T01:10:35.966Z,52.01
2022-07-25T01:13:03.027Z,52.61
2022-07-25T01:15:30.168Z,51.93
2022-07-25T01:17:57.025Z,51.49
2022-07-25T01:20:28.781Z,51.69
2022-07-25T01:22:56.954Z,52.80
2022-07-25T01:25:24.627Z,52.66
2022-07-25T01:27:55.742Z,52.66
2022-07-25T01:30:25.150Z,53.27
2022-07-25T01:32:52.564Z,53.10
2022-07-25T01:35:20.113Z,52.55
2022-07-25T01:37:47.056Z,52.65
2022-07-25T01:40:14.950Z,52.50
2022-07-25T01:42:42.804Z,52.94
2022-07-25T01:45:10.816Z,53.57
2022-07-25T01:47:38.226Z,53.98
2022-07-25T01:50:05.820Z,54.26
2022-07-25T01:52:32.855Z,54.13
2022-07-25T01:54:59.687Z,54.13
2022-07-25T01:57:30.118Z,54.51
2022-07-25T01:59:58.816Z,53.95
2022-07-25T02:02:25.896Z,54.08
2022-07-25T02:04:53.064Z,53.56
2022-07-25T02:07:20.239Z,54.24
2022-07-25T02:09:47.103Z,54.88
2022-07-25T02:12:13.952Z,55.14
2022-07-25T02:14:41.087Z,54.55
2022-07-25T02:17:08.205Z,55.78
2022-07-25T02:19:35.147Z,55.24
2022-07-25T02:22:02.076Z,54.21
2022-07-25T02:24:28.895Z,53.74
2022-07-25T02:26:55.666Z,53.08
2022-07-25T02:29:22.527Z,53.15
2022-07-25T02:31:51.997Z,52.62
2022-07-25T02:34:19.036Z,52.90
2022-07-25T02:36:46.057Z,52.32
2022-07-25T02:39:12.956Z,52.44
2022-07-25T02:41:39.909Z,52.53
2022-07-25T02:44:07.152Z,53.06
2022-07-25T02:46:34.261Z,52.27
2022-07-25T02:49:01.372Z,52.14
2022-07-25T02:51:28.145Z,51.67
2022-07-25T02:53:57.713Z,51.17
2022-07-25T02:56:26.267Z,50.63
2022-07-25T02:58:56.760Z,50.77
2022-07-25T03:01:23.736Z,51.29
2022-07-25T03:03:50.664Z,52.56
2022-07-25T03:06:17.624Z,52.13
2022-07-25T03:08:44.485Z,51.95
2022-07-25T03:11:11.955Z,51.88
2022-07-25T03:13:38.705Z,52.27
2022-07-25T03:16:06.873Z,53.02
2022-07-25T03:18:33.657Z,53.16
2022-07-25T03:21:00.522Z,52.97
2022-07-25T03:23:28.510Z,53.05
2022-07-25T03:25:56.261Z,53.29
2022-07-25T03:28:24.854Z,53.87
2022-07-25T03:30:52.700Z,53.96
2022-07-25T03:33:19.621Z,54.74
2022-07-25T03:35:46.598Z,55.08
2022-07-25T03:38:13.384Z,54.92
2022-07-25T03:40:40.256Z,54.51
2022-07-25T03:43:07.016Z,54.20
2022-07-25T03:45:33.869Z,55.54
2022-07-25T03:48:00.696Z,55.72
2022-07-25T03:50:27.484Z,54.36
2022-07-25T03:52:54.244Z,53.54
2022-07-25T03:55:21.056Z,53.65
2022-07-25T03:57:47.776Z,52.31
2022-07-25T04:00:14.749Z,50.29
2022-07-25T04:02:41.642Z,48.58
2022-07-25T04:05:09.451Z,47.41
2022-07-25T04:07:36.645Z,46.31
2022-07-25T04:10:05.359Z,45.56
2022-07-25T04:12:32.265Z,44.55
2022-07-25T04:14:58.996Z,43.49
2022-07-25T04:17:26.015Z,43.49
2022-07-25T04:19:52.799Z,42.90
2022-07-25T04:22:19.642Z,42.49
2022-07-25T04:24:46.546Z,41.64
2022-07-25T04:27:13.253Z,40.96
2022-07-25T04:29:40.085Z,40.13
2022-07-25T04:32:07.140Z,40.94
2022-07-25T04:34:33.917Z,40.15
2022-07-25T04:37:00.636Z,39.75
2022-07-25T04:39:27.445Z,39.00
2022-07-25T04:41:54.185Z,37.46
2022-07-25T04:44:21.086Z,36.63
2022-07-25T04:46:47.876Z,36.50
2022-07-25T04:49:14.663Z,36.13
2022-07-25T04:51:41.455Z,35.95
2022-07-25T04:54:09.892Z,35.03
2022-07-25T04:56:37.095Z,34.23
2022-07-25T04:59:06.828Z,34.12
2022-07-25T05:01:34.870Z,33.14
2022-07-25T05:04:02.050Z,32.98
2022-07-25T05:06:28.981Z,33.07
2022-07-25T05:08:55.834Z,32.55
2022-07-25T05:11:22.774Z,32.54
2022-07-25T05:13:49.627Z,32.08
2022-07-25T05:16:16.606Z,31.07
2022-07-25T05:18:43.594Z,30.46
2022-07-25T05:21:14.207Z,29.76
2022-07-25T05:23:41.144Z,29.81
2022-07-25T05:26:08.066Z,27.93
2022-07-25T05:28:34.952Z,26.80
2022-07-25T05:31:01.862Z,27.00
2022-07-25T05:33:28.714Z,27.82
2022-07-25T05:35:55.690Z,27.32
2022-07-25T05:38:26.604Z,26.12
2022-07-25T05:40:53.445Z,26.43
2022-07-25T05:43:20.393Z,25.06
2022-07-25T05:45:50.283Z,25.88
2022-07-25T05:48:17.144Z,25.68
2022-07-25T05:50:46.064Z,24.38
2022-07-25T05:53:12.886Z,25.29
2022-07-25T05:55:40.127Z,24.67
2022-07-25T05:58:07.676Z,25.22
2022-07-25T06:00:34.491Z,25.51
2022-07-25T06:03:01.433Z,27.16
2022-07-25T06:05:28.486Z,28.26
2022-07-25T06:07:55.290Z,29.69
2022-07-25T06:10:22.527Z,29.32
2022-07-25T06:12:49.505Z,32.00
2022-07-25T06:15:22.391Z,34.62
2022-07-25T06:17:53.276Z,34.15
2022-07-25T06:20:20.295Z,35.34
2022-07-25T06:22:47.174Z,36.25
2022-07-25T06:25:14.265Z,36.58
2022-07-25T06:27:48.605Z,37.46
2022-07-25T06:30:20.292Z,37.95
2022-07-25T06:32:48.993Z,38.41
2022-07-25T06:35:16.636Z,38.70
2022-07-25T06:37:43.425Z,37.67
2022-07-25T06:40:10.806Z,37.24
2022-07-25T06:42:47.914Z,37.16
2022-07-25T06:45:15.856Z,37.44
2022-07-25T06:47:44.315Z,37.32
2022-07-25T06:50:14.362Z,36.18
2022-07-25T06:52:42.090Z,37.33
2022-07-25T06:55:10.764Z,35.74
2022-07-25T06:57:38.014Z,35.13
2022-07-25T07:00:09.818Z,35.23
2022-07-25T07:02:52.220Z,34.51
2022-07-25T07:05:19.793Z,34.54
2022-07-25T07:07:48.226Z,34.29
2022-07-25T07:10:16.535Z,33.97
2022-07-25T07:12:43.715Z,35.43
2022-07-25T07:15:15.465Z,34.60
2022-07-25T07:17:44.828Z,35.15
2022-07-25T07:20:12.052Z,33.67
2022-07-25T07:22:49.451Z,33.78
2022-07-25T07:25:21.005Z,34.15
2022-07-25T07:27:48.983Z,32.78
2022-07-25T07:30:18.523Z,32.42
2022-07-25T07:32:49.008Z,32.12
2022-07-25T07:35:17.028Z,30.98
2022-07-25T07:37:44.785Z,31.74
2022-07-25T07:40:17.341Z,31.41
2022-07-25T07:42:48.583Z,31.56
2022-07-25T07:45:23.826Z,30.85
2022-07-25T07:47:52.798Z,30.29
2022-07-25T07:50:22.633Z,30.57
2022-07-25T07:52:50.657Z,30.74
2022-07-25T07:55:36.384Z,30.39
2022-07-25T07:58:03.903Z,32.58
2022-07-25T08:00:34.136Z,29.92
2022-07-25T08:03:01.553Z,31.17
2022-07-25T08:05:31.537Z,30.82
2022-07-25T08:07:59.134Z,30.02
2022-07-25T08:10:29.195Z,28.35
2022-07-25T08:12:57.342Z,29.24
2022-07-25T08:15:30.836Z,29.01
2022-07-25T08:17:57.811Z,30.72
2022-07-25T08:20:40.127Z,30.06
2022-07-25T08:23:08.016Z,27.81
2022-07-25T08:25:37.310Z,28.85
2022-07-25T08:28:06.497Z,28.25
2022-07-25T08:30:33.704Z,29.39
2022-07-25T08:33:05.333Z,29.19
2022-07-25T08:35:39.315Z,28.08
2022-07-25T08:38:07.008Z,29.22
2022-07-25T08:40:34.686Z,29.51
2022-07-25T08:43:01.645Z,27.52
2022-07-25T08:45:29.187Z,28.24
2022-07-25T08:47:56.823Z,28.06
2022-07-25T08:50:28.790Z,26.50
2022-07-25T08:53:16.260Z,26.67
2022-07-25T08:55:46.944Z,27.22
2022-07-25T08:58:21.563Z,27.14
2022-07-25T09:00:50.458Z,27.51
2022-07-25T09:03:19.723Z,25.99
2022-07-25T09:05:46.868Z,27.96
2022-07-25T09:08:17.617Z,27.75
2022-07-25T09:10:52.567Z,25.89
2022-07-25T09:13:22.468Z,27.04
2022-07-25T09:15:52.229Z,28.18
2022-07-25T09:18:24.555Z,27.79
2022-07-25T09:20:54.937Z,26.41
2022-07-25T09:23:32.060Z,26.77
2022-07-25T09:26:29.336Z,26.77
2022-07-25T09:28:57.205Z,26.54
2022-07-25T09:31:33.234Z,25.73
2022-07-25T09:34:01.880Z,26.43
2022-07-25T09:36:28.956Z,26.28
2022-07-25T09:39:13.242Z,25.40
2022-07-25T09:41:42.846Z,23.47
2022-07-25T09:44:22.445Z,24.38
2022-07-25T09:46:49.496Z,22.11
2022-07-25T09:49:16.548Z,23.47
2022-07-25T09:51:43.703Z,22.41
2022-07-25T09:54:10.611Z,23.41
2022-07-25T09:56:37.685Z,21.76
2022-07-25T09:59:06.281Z,19.99
2022-07-25T10:01:39.772Z,21.62
2022-07-25T10:04:22.867Z,20.39
2022-07-25T10:06:58.005Z,21.39
2022-07-25T10:09:25.016Z,21.02
2022-07-25T10:12:13.164Z,21.00
2022-07-25T10:14:40.217Z,23.07
2022-07-25T10:17:08.012Z,23.47
2022-07-25T10:19:52.883Z,24.42
2022-07-25T10:22:39.706Z,24.14
2022-07-25T10:25:12.787Z,22.21
2022-07-25T10:27:53.185Z,20.60
2022-07-25T10:30:23.514Z,21.97
2022-07-25T10:32:58.713Z,20.05
2022-07-25T10:35:27.234Z,21.40
2022-07-25T10:37:56.388Z,21.08
2022-07-25T10:40:43.674Z,22.24
2022-07-25T10:43:25.674Z,22.79
2022-07-25T10:45:59.389Z,22.95
2022-07-25T10:48:29.675Z,23.74
2022-07-25T10:51:04.867Z,24.12
2022-07-25T10:53:47.447Z,22.61
2022-07-25T10:56:17.279Z,22.40
2022-07-25T10:58:48.592Z,21.62
2022-07-25T11:01:41.524Z,22.14
2022-07-25T11:04:15.876Z,22.82
2022-07-25T11:06:43.586Z,20.01
2022-07-25T11:09:26.947Z,19.79
2022-07-25T11:11:58.156Z,18.32
2022-07-25T11:14:34.640Z,18.74
2022-07-25T11:17:15.564Z,18.58
2022-07-25T11:19:44.879Z,17.38
2022-07-25T11:22:12.768Z,17.91
2022-07-25T11:24:42.438Z,17.01
2022-07-25T11:27:12.503Z,15.56
2022-07-25T11:29:41.290Z,15.85
2022-07-25T11:32:12.037Z,14.62
2022-07-25T11:34:42.675Z,15.21
2022-07-25T11:37:12.996Z,14.96
2022-07-25T11:39:44.784Z,14.97
2022-07-25T11:42:16.391Z,14.67
2022-07-25T11:44:48.673Z,15.01
2022-07-25T11:47:29.419Z,14.96
2022-07-25T11:50:01.509Z,15.60
2022-07-25T11:52:32.690Z,15.22
2022-07-25T11:55:08.794Z,15.46
2022-07-25T11:57:39.158Z,16.33
2022-07-25T12:00:11.845Z,15.46
2022-07-25T12:02:39.267Z,15.57
2022-07-25T12:05:12.275Z,15.25
2022-07-25T12:07:54.675Z,15.22
2022-07-25T12:10:32.664Z,15.64
2022-07-25T12:13:01.696Z,15.86
2022-07-25T12:15:36.894Z,15.01
2022-07-25T12:18:03.975Z,17.36
2022-07-25T12:20:36.262Z,15.57
2022-07-25T12:23:11.946Z,16.32
2022-07-25T12:25:49.591Z,16.06
2022-07-25T12:28:17.632Z,15.87
2022-07-25T12:30:46.232Z,16.47
2022-07-25T12:33:13.915Z,18.89
2022-07-25T12:35:42.899Z,17.54
2022-07-25T12:38:11.362Z,18.55
2022-07-25T12:40:38.118Z,18.32
2022-07-25T12:43:05.488Z,17.80
2022-07-25T12:45:32.841Z,17.16
2022-07-25T12:47:59.799Z,16.40
2022-07-25T12:50:26.906Z,17.72
2022-07-25T12:52:54.466Z,18.29
2022-07-25T12:55:22.068Z,17.92
2022-07-25T12:57:49.825Z,18.38
2022-07-25T13:00:19.511Z,17.75
2022-07-25T13:02:47.025Z,17.08
2022-07-25T13:05:14.160Z,16.38
2022-07-25T13:07:41.094Z,17.09
2022-07-25T13:10:08.553Z,17.55
2022-07-25T13:12:35.476Z,17.07
2022-07-25T13:15:02.735Z,16.57
2022-07-25T13:17:29.594Z,16.38
2022-07-25T13:19:57.177Z,16.82
2022-07-25T13:22:25.177Z,15.93
2022-07-25T13:24:52.865Z,15.92
2022-07-25T13:27:21.217Z,15.80
2022-07-25T13:29:54.365Z,16.50
2022-07-25T13:32:22.620Z,16.90
2022-07-25T13:34:50.038Z,16.42
2022-07-25T13:37:16.894Z,16.37
2022-07-25T13:39:44.010Z,16.44
2022-07-25T13:42:11.339Z,15.98
2022-07-25T13:44:38.261Z,16.17
2022-07-25T13:47:05.405Z,16.55
2022-07-25T13:49:32.882Z,16.05
2022-07-25T13:51:59.604Z,15.72
2022-07-25T13:54:26.506Z,16.48
2022-07-25T13:56:53.315Z,15.93
2022-07-25T13:59:21.775Z,16.46
2022-07-25T14:01:49.686Z,16.66
2022-07-25T14:04:16.769Z,17.25
2022-07-25T14:06:43.681Z,16.36
2022-07-25T14:09:10.858Z,17.05
2022-07-25T14:11:38.180Z,16.51
2022-07-25T14:14:04.956Z,17.41
2022-07-25T14:16:33.967Z,18.04
2022-07-25T14:19:01.355Z,16.93
2022-07-25T14:21:28.274Z,16.78
2022-07-25T14:23:55.206Z,17.04
2022-07-25T14:26:22.258Z,16.83
2022-07-25T14:28:49.125Z,16.62
2022-07-25T14:31:16.190Z,17.00
2022-07-25T14:33:43.198Z,17.58
2022-07-25T14:36:10.440Z,16.89
2022-07-25T14:38:37.503Z,17.90
2022-07-25T14:41:09.204Z,18.67
2022-07-25T14:43:39.078Z,20.18
2022-07-25T14:46:08.091Z,19.22
2022-07-25T14:49:02.339Z,19.56
2022-07-25T14:51:33.766Z,18.84
2022-07-25T14:54:00.604Z,18.45
2022-07-25T14:56:27.486Z,18.76
2022-07-25T14:58:54.316Z,19.10
2022-07-25T15:01:24.539Z,19.53
2022-07-25T15:03:52.634Z,19.75
2022-07-25T15:06:19.665Z,19.08
2022-07-25T15:08:46.598Z,19.12
2022-07-25T15:11:13.641Z,18.78
2022-07-25T15:13:40.437Z,18.51
2022-07-25T15:16:07.413Z,20.16
2022-07-25T15:18:52.321Z,20.05
2022-07-25T15:21:21.087Z,20.14
2022-07-25T15:23:47.853Z,20.51
2022-07-25T15:26:14.658Z,20.78
2022-07-25T15:28:41.736Z,20.68
2022-07-25T15:31:08.565Z,21.05
2022-07-25T15:33:35.526Z,21.19
2022-07-25T15:36:02.604Z,22.22
2022-07-25T15:38:29.586Z,22.13
2022-07-25T15:40:56.665Z,21.79
2022-07-25T15:43:24.085Z,21.94
2022-07-25T15:45:51.398Z,22.71
2022-07-25T15:48:18.774Z,23.38
2022-07-25T15:50:48.333Z,23.56
2022-07-25T15:53:15.838Z,23.14
2022-07-25T15:55:43.168Z,23.66
2022-07-25T15:58:11.195Z,23.70
2022-07-25T16:00:39.851Z,23.30
2022-07-25T16:03:07.808Z,23.50
2022-07-25T16:05:35.622Z,23.65
2022-07-25T16:08:03.633Z,23.75
2022-07-25T16:10:32.537Z,23.60
2022-07-25T16:12:59.367Z,23.96
2022-07-25T16:15:26.502Z,23.76
2022-07-25T16:18:01.685Z,24.04
2022-07-25T16:20:29.587Z,23.81
2022-07-25T16:22:57.987Z,24.22
2022-07-25T16:25:26.646Z,23.96
2022-07-25T16:27:54.232Z,24.47
2022-07-25T16:30:21.734Z,23.32
2022-07-25T16:32:48.524Z,23.82
2022-07-25T16:35:15.285Z,23.23
2022-07-25T16:37:42.759Z,24.07
2022-07-25T16:40:10.098Z,24.11
2022-07-25T16:42:37.343Z,24.51
2022-07-25T16:45:05.116Z,24.25
2022-07-25T16:47:31.855Z,23.96
2022-07-25T16:49:58.702Z,24.25
2022-07-25T16:52:25.715Z,24.70
2022-07-25T16:54:52.445Z,25.01
2022-07-25T16:57:20.015Z,24.92
2022-07-25T16:59:53.552Z,24.84
2022-07-25T17:02:22.163Z,25.05
2022-07-25T17:04:51.850Z,25.24
2022-07-25T17:07:18.666Z,25.32
2022-07-25T17:09:46.021Z,24.85
2022-07-25T17:12:12.866Z,25.13
2022-07-25T17:14:39.665Z,25.43
2022-07-25T17:17:06.518Z,25.82
2022-07-25T17:19:36.446Z,25.96
2022-07-25T17:22:03.476Z,25.89
2022-07-25T17:24:30.216Z,25.58
2022-07-25T17:26:56.995Z,25.79
2022-07-25T17:29:23.876Z,26.21
2022-07-25T17:31:50.626Z,26.84
2022-07-25T17:34:17.592Z,29.51
2022-07-25T17:36:44.716Z,29.47
2022-07-25T17:39:11.736Z,28.48
2022-07-25T17:41:38.603Z,28.93
2022-07-25T17:44:11.371Z,29.94
2022-07-25T17:46:38.963Z,30.16
2022-07-25T17:49:05.892Z,30.08
2022-07-25T17:51:32.724Z,29.75
2022-07-25T17:53:59.575Z,30.43
2022-07-25T17:56:26.556Z,31.49
2022-07-25T17:58:53.386Z,31.60
2022-07-25T18:01:20.253Z,31.71
2022-07-25T18:03:47.774Z,32.27
2022-07-25T18:06:15.176Z,32.09
2022-07-25T18:08:41.965Z,32.11
2022-07-25T18:11:08.826Z,32.53
2022-07-25T18:13:35.615Z,33.40
2022-07-25T18:16:02.586Z,33.40
2022-07-25T18:18:29.815Z,33.88
2022-07-25T18:20:56.627Z,34.01
2022-07-25T18:23:26.486Z,34.27
2022-07-25T18:25:53.635Z,34.26
2022-07-25T18:28:22.076Z,34.34
2022-07-25T18:30:51.377Z,34.25
2022-07-25T18:33:19.319Z,34.88
2022-07-25T18:35:46.255Z,34.65
2022-07-25T18:38:13.077Z,34.62
2022-07-25T18:40:39.858Z,37.08
2022-07-25T18:43:08.957Z,37.23
2022-07-25T18:45:38.217Z,36.29
2022-07-25T18:48:06.394Z,37.08
2022-07-25T18:50:33.180Z,37.39
2022-07-25T18:53:00.839Z,38.25
2022-07-25T18:55:27.726Z,38.21
2022-07-25T18:57:54.576Z,37.67
2022-07-25T19:00:21.603Z,37.13
2022-07-25T19:02:48.599Z,37.72
2022-07-25T19:05:15.417Z,38.07
2022-07-25T19:07:42.488Z,37.37
2022-07-25T19:10:10.729Z,37.51
2022-07-25T19:12:37.957Z,37.58
2022-07-25T19:15:05.635Z,37.96
2022-07-25T19:17:37.235Z,38.03
2022-07-25T19:20:05.278Z,38.16
2022-07-25T19:22:32.234Z,38.58
2022-07-25T19:25:01.225Z,39.11
2022-07-25T19:27:29.055Z,39.01
2022-07-25T19:29:56.005Z,39.04
2022-07-25T19:32:22.909Z,38.87
2022-07-25T19:34:49.816Z,40.44
2022-07-25T19:37:16.815Z,40.35
2022-07-25T19:39:43.736Z,40.41
2022-07-25T19:42:12.612Z,40.22
2022-07-25T19:44:39.806Z,40.24
2022-07-25T19:47:11.214Z,40.21
2022-07-25T19:49:39.976Z,40.88
2022-07-25T19:52:10.265Z,41.12
2022-07-25T19:54:37.815Z,40.69
2022-07-25T19:57:05.165Z,40.08
2022-07-25T19:59:31.983Z,40.13
2022-07-25T20:01:59.357Z,40.63
2022-07-25T20:04:26.391Z,41.19
2022-07-25T20:06:53.387Z,40.92
2022-07-25T20:09:20.706Z,41.29
2022-07-25T20:11:47.647Z,41.48
2022-07-25T20:14:14.536Z,41.26
2022-07-25T20:16:41.606Z,42.19
2022-07-25T20:19:11.417Z,42.88
2022-07-25T20:21:39.433Z,43.50
2022-07-25T20:24:06.845Z,43.87
2022-07-25T20:26:33.761Z,44.15
2022-07-25T20:29:00.739Z,45.31
2022-07-25T20:31:27.601Z,44.98
2022-07-25T20:33:54.478Z,45.25
2022-07-25T20:36:21.576Z,44.98
2022-07-25T20:38:48.541Z,44.62
2022-07-25T20:41:16.267Z,44.36
2022-07-25T20:43:43.171Z,45.16
2022-07-25T20:46:10.049Z,45.48
2022-07-25T20:48:37.362Z,45.48
2022-07-25T20:51:04.815Z,45.50
2022-07-25T20:53:32.957Z,46.24
2022-07-25T20:56:00.008Z,45.20
2022-07-25T20:58:26.925Z,45.70
2022-07-25T21:00:53.834Z,46.07
2022-07-25T21:03:20.683Z,45.88
2022-07-25T21:05:47.706Z,45.56
2022-07-25T21:08:15.415Z,46.29
2022-07-25T21:10:42.338Z,46.15
2022-07-25T21:13:09.255Z,46.01
2022-07-25T21:15:36.167Z,45.33
2022-07-25T21:18:03.054Z,45.60
2022-07-25T21:20:30.076Z,45.85
2022-07-25T21:22:56.935Z,46.51
2022-07-25T21:25:23.831Z,46.99
2022-07-25T21:27:51.066Z,47.40
2022-07-25T21:30:18.396Z,47.75
2022-07-25T21:32:45.425Z,48.19
2022-07-25T21:35:12.356Z,48.18
2022-07-25T21:37:40.135Z,47.84
2022-07-25T21:40:07.765Z,48.32
2022-07-25T21:42:35.942Z,48.51
2022-07-25T21:45:02.827Z,47.76
2022-07-25T21:47:29.595Z,47.96
2022-07-25T21:50:19.268Z,48.08
2022-07-25T21:52:51.599Z,48.54
2022-07-25T21:55:18.495Z,48.85
2022-07-25T21:57:45.346Z,48.79
2022-07-25T22:00:13.166Z,48.41
2022-07-25T22:02:42.426Z,48.38
2022-07-25T22:05:10.099Z,49.18
2022-07-25T22:07:36.994Z,48.64
2022-07-25T22:10:07.594Z,49.24
2022-07-25T22:12:34.565Z,49.57
2022-07-25T22:15:01.406Z,49.30
2022-07-25T22:17:28.295Z,49.44
2022-07-25T22:20:15.105Z,50.00
2022-07-25T22:22:41.886Z,48.90
2022-07-25T22:25:09.138Z,48.41
2022-07-25T22:27:35.967Z,47.94
2022-07-25T22:30:03.318Z,49.00
2022-07-25T22:32:30.263Z,49.79
2022-07-25T22:34:57.016Z,49.96
2022-07-25T22:37:23.745Z,50.18
2022-07-25T22:39:51.956Z,49.79
2022-07-25T22:42:23.813Z,51.38
2022-07-25T22:44:50.653Z,51.05
2022-07-25T22:47:17.468Z,51.03
2022-07-25T22:49:44.194Z,51.66
2022-07-25T22:52:10.995Z,51.31
2022-07-25T22:54:37.802Z,51.57
2022-07-25T22:57:04.765Z,51.52
2022-07-25T22:59:31.695Z,51.11
2022-07-25T23:01:58.535Z,51.02
2022-07-25T23:04:25.504Z,50.74
2022-07-25T23:06:52.303Z,52.72
2022-07-25T23:09:19.266Z,51.74
2022-07-25T23:11:46.085Z,51.76
2022-07-25T23:14:12.864Z,53.39
2022-07-25T23:16:39.908Z,52.63
2022-07-25T23:19:06.990Z,52.31
2022-07-25T23:21:34.545Z,53.42
2022-07-25T23:24:01.395Z,52.35
2022-07-25T23:26:28.335Z,52.67
2022-07-25T23:28:55.497Z,51.85
2022-07-25T23:31:22.435Z,52.14
2022-07-25T23:33:49.240Z,50.94
2022-07-25T23:36:16.087Z,51.29
2022-07-25T23:38:42.815Z,51.63
2022-07-25T23:41:09.555Z,52.01
2022-07-25T23:43:56.187Z,52.55
2022-07-25T23:46:27.932Z,51.95
2022-07-25T23:48:58.901Z,51.09
2022-07-25T23:51:26.614Z,50.98
2022-07-25T23:53:53.721Z,51.29
2022-07-25T23:56:21.324Z,51.04
2022-07-25T23:58:50.209Z,50.29
